KMEH

Meacham Airport

Meacham, Oregon, USA
METAR KMEH 222056Z AUTO 00000KT 10SM CLR 21/01 A3000 RMK AO2 SLP154 T02110006 58013
Observed Flight Rules
Oct-22 @ 20:56 UTC (52 minutes ago) Visual Flight Rules
Visibility Clouds
10 miles
  • Clear skies
Temperatures Readings
Current 21°C / 70°F
Dewpoint 1°C / 34°F
Humidity 27%
Altimeter 30" Hg
Pressure 1015.4 hPa
Elevation 1136
METAR KMEH 222056Z AUTO 00000KT 10SM CLR 21/01 A3000 RMK AO2 SLP154 T02110006 58013
Observed Flight Rules
Oct-22 @ 20:56 UTC
(52 minutes ago)
VFR
Clouds
  • Clear skies
Temperature Dewpoint
21°C / 70°F 1°C / 34°F
Humidity Altimeter Pressure
27% 30" Hg 1015.4 hPa